Time;durP1;ratioP1;P1;durP2;ratioP2;P2;SDS_P1;SDS_P2;PMS_P1;PMS_P2;Temp;Humidity;BMP_temperature;BMP_pressure;BME280_temperature;BME280_humidity;BME280_pressure;Samples;Min_cycle;Max_cycle;Signal;HPM_P1;HPM_P2
2022/04/15 00:02:48;;;;;;;7.17;4.57;;;8.80;99.90;;;;;;5004692;28;20475;-69
2022/04/15 00:05:37;;;;;;;5.60;4.90;;;8.80;99.90;;;;;;5004545;28;20464;-68
2022/04/15 00:08:25;;;;;;;5.37;4.87;;;8.80;99.90;;;;;;4997844;28;20480;-68
2022/04/15 00:11:14;;;;;;;6.20;5.10;;;8.80;99.90;;;;;;4998478;28;20489;-68
2022/04/15 00:14:04;;;;;;;4.90;4.50;;;8.80;99.90;;;;;;4999818;28;20637;-69
2022/04/15 00:16:53;;;;;;;5.40;4.90;;;8.80;99.90;;;;;;4996753;28;21052;-68
2022/04/15 00:19:41;;;;;;;6.97;6.07;;;8.80;99.90;;;;;;5001264;28;20603;-68
2022/04/15 00:22:30;;;;;;;7.00;5.43;;;8.90;99.90;;;;;;5002494;28;20467;-68
2022/04/15 00:25:18;;;;;;;6.10;5.50;;;8.90;99.90;;;;;;5003471;28;20610;-68
2022/04/15 00:28:10;;;;;;;7.10;6.37;;;8.90;99.90;;;;;;5003682;28;20903;-68
2022/04/15 00:30:59;;;;;;;7.23;6.50;;;8.80;99.90;;;;;;5000116;28;20476;-69
2022/04/15 00:33:48;;;;;;;7.57;6.77;;;8.80;99.90;;;;;;5001998;28;20486;-68
2022/04/15 00:36:37;;;;;;;7.43;6.50;;;8.80;99.90;;;;;;5004876;28;20584;-68
2022/04/15 00:39:25;;;;;;;9.50;7.00;;;8.80;99.90;;;;;;4999564;28;20530;-69
2022/04/15 00:42:13;;;;;;;9.70;6.97;;;8.80;99.90;;;;;;4998047;28;20547;-68
2022/04/15 00:45:02;;;;;;;7.37;6.67;;;8.80;99.90;;;;;;4997870;28;20555;-68
2022/04/15 00:47:52;;;;;;;9.00;7.30;;;8.80;99.90;;;;;;5001739;28;21006;-69
2022/04/15 00:50:42;;;;;;;10.40;7.53;;;8.70;99.90;;;;;;4998476;28;20603;-68
2022/04/15 00:53:31;;;;;;;9.73;8.33;;;8.70;99.90;;;;;;4998713;28;20560;-70
2022/04/15 00:56:21;;;;;;;7.37;6.53;;;8.70;99.90;;;;;;5003600;28;20465;-68
2022/04/15 00:59:10;;;;;;;8.87;6.57;;;8.70;99.90;;;;;;4998134;28;20519;-68
2022/04/15 01:02:00;;;;;;;8.00;6.83;;;8.70;99.90;;;;;;5001829;28;20444;-69
2022/04/15 01:04:52;;;;;;;7.43;6.73;;;8.70;99.90;;;;;;4974442;28;20544;-68
2022/04/15 01:07:43;;;;;;;8.73;6.80;;;8.70;99.90;;;;;;4977458;28;20469;-69
2022/04/15 01:10:36;;;;;;;9.80;6.70;;;8.70;99.90;;;;;;4973752;28;20463;-68
2022/04/15 01:13:25;;;;;;;8.30;6.40;;;8.70;99.90;;;;;;4975916;28;20556;-68
2022/04/15 01:16:15;;;;;;;6.27;5.77;;;8.70;99.90;;;;;;4974643;28;20512;-68
2022/04/15 01:19:04;;;;;;;8.03;6.30;;;8.70;99.90;;;;;;4977343;28;20973;-68
2022/04/15 01:21:56;;;;;;;6.50;5.90;;;8.70;99.90;;;;;;4974348;28;20563;-68
2022/04/15 01:24:46;;;;;;;6.27;5.67;;;8.70;99.90;;;;;;4996304;28;20602;-68
2022/04/15 01:27:36;;;;;;;6.80;5.80;;;8.70;99.90;;;;;;5001289;28;20898;-68
2022/04/15 01:30:24;;;;;;;8.13;5.97;;;8.70;99.90;;;;;;4994757;28;20546;-68
2022/04/15 01:33:12;;;;;;;9.37;6.40;;;8.70;99.90;;;;;;4993936;28;21034;-68
2022/04/15 01:36:02;;;;;;;6.30;5.70;;;8.80;99.90;;;;;;4997331;28;20475;-68
2022/04/15 01:38:51;;;;;;;7.53;6.80;;;8.80;99.90;;;;;;4995447;28;20467;-68
2022/04/15 01:41:40;;;;;;;9.67;7.27;;;8.80;99.90;;;;;;4993821;28;21750;-69
2022/04/15 01:44:28;;;;;;;9.03;6.50;;;8.70;99.90;;;;;;4989309;28;20575;-68
2022/04/15 01:47:17;;;;;;;7.40;6.70;;;8.70;99.90;;;;;;4997350;28;20546;-68
2022/04/15 01:50:06;;;;;;;9.47;6.60;;;8.70;99.90;;;;;;5000635;28;20503;-68
2022/04/15 01:52:55;;;;;;;9.03;7.03;;;8.70;99.90;;;;;;4999769;28;20477;-68
2022/04/15 01:55:43;;;;;;;8.20;7.20;;;8.70;99.90;;;;;;5004543;28;20472;-68
2022/04/15 01:58:32;;;;;;;8.20;7.40;;;8.70;99.90;;;;;;5005125;28;21002;-68
2022/04/15 02:01:20;;;;;;;7.60;6.87;;;8.70;99.90;;;;;;5003866;28;20538;-68
2022/04/15 02:04:09;;;;;;;9.80;7.37;;;8.60;99.90;;;;;;5006477;28;20853;-68
2022/04/15 02:06:58;;;;;;;10.67;7.80;;;8.70;99.90;;;;;;5000557;28;20546;-68
2022/04/15 02:09:46;;;;;;;9.43;7.77;;;8.60;99.90;;;;;;5005102;28;20554;-68
2022/04/15 02:12:34;;;;;;;8.67;7.60;;;8.70;99.90;;;;;;4997714;28;20523;-68
2022/04/15 02:15:24;;;;;;;8.90;8.00;;;8.70;99.90;;;;;;4999749;28;20935;-69
2022/04/15 02:18:13;;;;;;;9.50;8.57;;;8.70;99.90;;;;;;5000009;28;20558;-69
2022/04/15 02:21:01;;;;;;;11.83;8.93;;;8.70;99.90;;;;;;5000509;28;20487;-68
2022/04/15 02:23:49;;;;;;;9.83;8.70;;;8.70;99.90;;;;;;4998467;28;20632;-68
2022/04/15 02:26:37;;;;;;;10.60;9.50;;;8.70;99.90;;;;;;5003421;28;21243;-69
2022/04/15 02:29:26;;;;;;;14.20;9.57;;;8.70;99.90;;;;;;4999007;28;20607;-68
2022/04/15 02:32:15;;;;;;;11.53;9.50;;;8.70;99.90;;;;;;4998936;28;20530;-68
2022/04/15 02:35:04;;;;;;;11.43;9.30;;;8.60;99.90;;;;;;5001898;28;20562;-68
2022/04/15 02:37:53;;;;;;;11.37;9.50;;;8.60;99.90;;;;;;4992541;28;20463;-69
2022/04/15 02:40:41;;;;;;;11.30;10.00;;;8.60;99.90;;;;;;4997564;28;20955;-69
2022/04/15 02:43:32;;;;;;;12.43;11.13;;;8.60;99.90;;;;;;4998496;28;20472;-69
2022/04/15 02:46:20;;;;;;;15.53;10.60;;;8.60;99.90;;;;;;5003473;28;20457;-69
2022/04/15 02:49:11;;;;;;;13.13;10.40;;;8.60;99.90;;;;;;4999536;28;20500;-69
2022/04/15 02:51:59;;;;;;;13.03;11.73;;;8.50;99.90;;;;;;4999574;28;20546;-68
2022/04/15 02:54:48;;;;;;;10.73;9.63;;;8.50;99.90;;;;;;4986314;28;20574;-69
2022/04/15 02:57:36;;;;;;;13.37;10.90;;;8.50;99.90;;;;;;4976634;28;20570;-69
2022/04/15 03:00:24;;;;;;;12.20;10.77;;;8.50;99.90;;;;;;4980601;28;20472;-68
2022/04/15 03:03:13;;;;;;;11.80;10.37;;;8.50;99.90;;;;;;4991540;28;20600;-69
2022/04/15 03:06:03;;;;;;;11.90;10.53;;;8.50;99.90;;;;;;5001471;28;20462;-69
2022/04/15 03:08:51;;;;;;;10.40;9.30;;;8.50;99.90;;;;;;5006369;28;20527;-69
2022/04/15 03:11:41;;;;;;;10.80;9.70;;;8.50;99.90;;;;;;5005718;28;20463;-69
2022/04/15 03:14:30;;;;;;;10.17;9.27;;;8.50;99.90;;;;;;4999400;28;20651;-69
2022/04/15 03:17:18;;;;;;;10.70;9.60;;;8.50;99.90;;;;;;5002206;28;20453;-69
2022/04/15 03:20:07;;;;;;;9.90;9.00;;;8.50;99.90;;;;;;5003962;28;20698;-69
2022/04/15 03:22:57;;;;;;;10.43;9.43;;;8.40;99.90;;;;;;5002135;28;21044;-69
2022/04/15 03:25:46;;;;;;;13.10;10.27;;;8.40;99.90;;;;;;5001703;28;20488;-69
2022/04/15 03:28:34;;;;;;;13.57;11.40;;;8.40;99.90;;;;;;5002819;28;20539;-69
2022/04/15 03:31:23;;;;;;;11.53;10.43;;;8.40;99.90;;;;;;5001583;28;20449;-69
2022/04/15 03:34:11;;;;;;;12.50;10.03;;;8.30;99.90;;;;;;5002684;28;20476;-69
2022/04/15 03:36:59;;;;;;;10.80;9.70;;;8.40;99.90;;;;;;5002608;28;20521;-69
2022/04/15 03:39:49;;;;;;;13.27;11.23;;;8.40;99.90;;;;;;5000370;28;20595;-68
2022/04/15 03:42:44;;;;;;;11.70;10.50;;;8.40;99.90;;;;;;5001636;28;20466;-69
2022/04/15 03:45:32;;;;;;;11.03;9.70;;;8.40;99.90;;;;;;4999677;28;20452;-69
2022/04/15 03:48:20;;;;;;;12.37;10.10;;;8.40;99.90;;;;;;5004123;28;20603;-69
2022/04/15 03:51:11;;;;;;;11.77;10.60;;;8.40;99.90;;;;;;5002312;28;20452;-69
2022/04/15 03:53:59;;;;;;;13.50;10.60;;;8.40;99.90;;;;;;5002431;28;21274;-69
2022/04/15 03:56:48;;;;;;;13.90;11.60;;;8.30;99.90;;;;;;5003513;28;20566;-69
2022/04/15 03:59:36;;;;;;;13.80;12.03;;;8.40;99.90;;;;;;5001599;28;20617;-68
2022/04/15 04:02:25;;;;;;;16.20;11.80;;;8.30;99.90;;;;;;4997804;28;20513;-69
2022/04/15 04:05:13;;;;;;;16.27;12.90;;;8.30;99.90;;;;;;4995573;28;20453;-68
2022/04/15 04:08:02;;;;;;;15.70;12.30;;;8.30;99.90;;;;;;4995307;28;20506;-68
2022/04/15 04:10:50;;;;;;;18.87;13.00;;;8.30;99.90;;;;;;5000273;28;20453;-69
2022/04/15 04:13:39;;;;;;;16.37;12.90;;;8.40;99.90;;;;;;4994900;28;20606;-69
2022/04/15 04:16:27;;;;;;;17.37;13.10;;;8.30;99.90;;;;;;4999993;28;20488;-69
2022/04/15 04:19:16;;;;;;;15.17;13.57;;;8.40;99.90;;;;;;4998960;28;20527;-68
2022/04/15 04:22:05;;;;;;;17.47;14.27;;;8.30;99.90;;;;;;4998026;28;20955;-69
2022/04/15 04:24:53;;;;;;;17.60;13.73;;;8.30;99.90;;;;;;5000651;28;21000;-69
2022/04/15 04:27:43;;;;;;;20.30;15.27;;;8.30;99.90;;;;;;5003393;28;20484;-69
2022/04/15 04:30:32;;;;;;;17.40;14.43;;;8.40;99.90;;;;;;5000791;28;21063;-69
2022/04/15 04:33:20;;;;;;;19.97;14.83;;;8.40;99.90;;;;;;4998685;28;20597;-69
2022/04/15 04:36:09;;;;;;;19.13;14.60;;;8.40;99.90;;;;;;5002351;28;20485;-69
2022/04/15 04:38:57;;;;;;;18.50;15.57;;;8.40;99.90;;;;;;4998699;28;21357;-69
2022/04/15 04:41:45;;;;;;;18.47;14.40;;;8.40;99.90;;;;;;4999303;28;20522;-69
2022/04/15 04:44:34;;;;;;;21.17;15.43;;;8.40;99.90;;;;;;4994383;28;21604;-69
2022/04/15 04:47:24;;;;;;;21.93;15.53;;;8.40;99.90;;;;;;4999874;28;20503;-68
2022/04/15 04:50:13;;;;;;;20.43;15.20;;;8.40;99.90;;;;;;5000515;28;20532;-68
2022/04/15 04:53:01;;;;;;;22.90;16.73;;;8.40;99.90;;;;;;5000016;28;21127;-69
2022/04/15 04:55:50;;;;;;;23.80;16.40;;;8.40;99.90;;;;;;5002388;28;20485;-69
2022/04/15 04:58:38;;;;;;;19.80;16.13;;;8.40;99.90;;;;;;4995638;28;20477;-70
2022/04/15 05:01:26;;;;;;;21.97;17.23;;;8.40;99.90;;;;;;4997334;28;20641;-68
2022/04/15 05:04:15;;;;;;;20.83;16.13;;;8.40;99.90;;;;;;4996434;28;20537;-68
2022/04/15 05:07:04;;;;;;;20.33;16.73;;;8.40;99.90;;;;;;5003133;28;20993;-68
2022/04/15 05:09:53;;;;;;;25.17;17.60;;;8.40;99.90;;;;;;5002437;28;20949;-68
2022/04/15 05:12:41;;;;;;;25.57;19.10;;;8.40;99.90;;;;;;5002332;28;20465;-68
2022/04/15 05:15:29;;;;;;;22.27;16.57;;;8.40;99.90;;;;;;5002620;28;20709;-69
2022/04/15 05:18:18;;;;;;;23.10;17.40;;;8.40;99.90;;;;;;5001285;28;20524;-68
2022/04/15 05:21:07;;;;;;;21.63;16.87;;;8.40;99.90;;;;;;5003516;28;20533;-69
2022/04/15 05:23:55;;;;;;;23.97;18.13;;;8.40;99.90;;;;;;4992064;28;20569;-69
2022/04/15 05:26:43;;;;;;;21.33;16.37;;;8.40;99.90;;;;;;4991168;28;20596;-69
2022/04/15 05:29:32;;;;;;;23.10;16.53;;;8.40;99.90;;;;;;4997332;28;22457;-69
2022/04/15 05:32:22;;;;;;;22.37;16.60;;;8.40;99.90;;;;;;4999645;28;20959;-68
2022/04/15 05:35:10;;;;;;;20.73;16.83;;;8.50;99.90;;;;;;5001554;28;21503;-69
2022/04/15 05:38:00;;;;;;;24.00;17.27;;;8.50;99.90;;;;;;5003060;28;20453;-69
2022/04/15 05:40:48;;;;;;;25.17;17.53;;;8.60;99.90;;;;;;5004403;28;20590;-69
2022/04/15 05:43:37;;;;;;;25.83;17.93;;;8.50;99.90;;;;;;5001330;28;20513;-69
2022/04/15 05:46:27;;;;;;;27.10;18.60;;;8.50;99.90;;;;;;5001575;28;20456;-69
2022/04/15 05:49:16;;;;;;;26.87;19.03;;;8.60;99.90;;;;;;4998171;28;20592;-69
2022/04/15 05:52:05;;;;;;;25.50;18.30;;;8.60;99.90;;;;;;5002331;28;20784;-69
2022/04/15 05:54:55;;;;;;;27.03;20.00;;;8.50;99.90;;;;;;5002885;28;22235;-68
2022/04/15 05:57:43;;;;;;;26.00;19.27;;;8.50;99.90;;;;;;4999448;28;21881;-69
2022/04/15 06:00:31;;;;;;;27.00;18.07;;;8.60;99.90;;;;;;4997687;28;20559;-69
2022/04/15 06:03:20;;;;;;;29.30;19.03;;;8.60;99.90;;;;;;5005541;28;20629;-69
2022/04/15 06:06:08;;;;;;;27.87;19.73;;;8.60;99.90;;;;;;5001381;28;20591;-69
2022/04/15 06:08:56;;;;;;;27.33;18.30;;;8.70;99.90;;;;;;5003886;28;20573;-69
2022/04/15 06:11:46;;;;;;;25.00;16.63;;;8.60;99.90;;;;;;5001520;28;20850;-69
2022/04/15 06:14:36;;;;;;;29.73;18.70;;;8.70;99.90;;;;;;5002822;28;20642;-69
2022/04/15 06:17:24;;;;;;;23.63;16.93;;;8.60;99.90;;;;;;5006300;28;20459;-69
2022/04/15 06:20:12;;;;;;;23.77;16.90;;;8.60;99.90;;;;;;5004085;28;20456;-69
2022/04/15 06:23:00;;;;;;;28.53;17.03;;;8.60;99.90;;;;;;5005433;28;20472;-69
2022/04/15 06:25:49;;;;;;;26.67;18.00;;;8.60;99.90;;;;;;5001354;28;20563;-69
2022/04/15 06:28:38;;;;;;;22.60;16.57;;;8.70;99.90;;;;;;5005414;28;20647;-69
2022/04/15 06:31:26;;;;;;;27.37;16.93;;;8.60;99.90;;;;;;5003033;28;20571;-69
2022/04/15 06:34:16;;;;;;;25.60;17.80;;;8.70;99.90;;;;;;5007832;28;21002;-69
2022/04/15 06:37:04;;;;;;;30.00;16.43;;;8.70;99.90;;;;;;5008078;28;20515;-69
2022/04/15 06:39:55;;;;;;;28.07;16.73;;;8.70;99.90;;;;;;5003969;28;20575;-69
2022/04/15 06:42:43;;;;;;;24.00;16.70;;;8.70;99.90;;;;;;5001274;28;20458;-68
2022/04/15 06:45:32;;;;;;;21.30;15.23;;;8.70;99.90;;;;;;4995117;28;20463;-68
2022/04/15 06:48:20;;;;;;;22.40;14.90;;;8.70;99.90;;;;;;5000910;28;20506;-68
2022/04/15 06:51:09;;;;;;;22.20;14.50;;;8.70;99.90;;;;;;4992802;28;20460;-68
2022/04/15 06:53:57;;;;;;;21.17;13.83;;;8.80;99.90;;;;;;4997625;28;20642;-70
2022/04/15 06:56:45;;;;;;;22.20;14.77;;;8.80;99.90;;;;;;4997879;28;20485;-68
2022/04/15 06:59:37;;;;;;;21.03;14.10;;;8.80;99.90;;;;;;4999026;28;20806;-68
2022/04/15 07:02:27;;;;;;;25.53;15.00;;;8.80;99.90;;;;;;4991995;28;20463;-70
2022/04/15 07:05:16;;;;;;;19.60;14.90;;;8.80;99.90;;;;;;5003500;28;20444;-68
2022/04/15 07:08:05;;;;;;;23.00;15.37;;;8.80;99.90;;;;;;4988875;28;21272;-69
2022/04/15 07:10:53;;;;;;;24.30;15.07;;;8.80;99.90;;;;;;4992058;28;20454;-68
2022/04/15 07:13:42;;;;;;;24.20;15.70;;;8.80;99.90;;;;;;4987564;28;20484;-68
2022/04/15 07:16:30;;;;;;;27.77;16.40;;;8.80;99.90;;;;;;4996900;28;20578;-69
2022/04/15 07:19:19;;;;;;;26.30;15.20;;;8.80;99.90;;;;;;4995307;28;20499;-70
2022/04/15 07:22:07;;;;;;;25.60;17.00;;;8.80;99.90;;;;;;4998482;28;22572;-69
2022/04/15 07:24:56;;;;;;;25.83;17.00;;;8.90;99.90;;;;;;5000788;28;20481;-69
2022/04/15 07:27:44;;;;;;;24.23;16.63;;;8.90;99.90;;;;;;5001583;28;20889;-70
2022/04/15 07:30:32;;;;;;;24.13;15.97;;;8.90;99.90;;;;;;4998227;28;20531;-69
2022/04/15 07:33:20;;;;;;;23.40;16.50;;;8.90;99.90;;;;;;4995346;28;20540;-69
2022/04/15 07:36:31;;;;;;;22.87;16.23;;;8.90;99.90;;;;;;5002722;28;20499;-69
2022/04/15 07:39:19;;;;;;;24.80;16.13;;;8.90;99.90;;;;;;4997314;28;20967;-69
2022/04/15 07:42:08;;;;;;;21.77;16.23;;;8.90;99.90;;;;;;4999635;28;20456;-69
2022/04/15 07:44:56;;;;;;;23.33;15.47;;;8.90;99.90;;;;;;4999399;28;20855;-69
2022/04/15 07:47:44;;;;;;;18.03;14.60;;;8.90;99.90;;;;;;4992899;28;20568;-70
2022/04/15 07:50:38;;;;;;;17.70;14.20;;;9.00;99.90;;;;;;4989630;28;20464;-69
2022/04/15 07:53:29;;;;;;;19.10;14.00;;;9.00;99.90;;;;;;4988166;28;20477;-70
2022/04/15 07:56:17;;;;;;;19.67;13.30;;;9.00;99.90;;;;;;4997761;28;20469;-71
2022/04/15 07:59:05;;;;;;;17.50;13.73;;;9.10;99.90;;;;;;4997085;28;20577;-69
2022/04/15 08:01:53;;;;;;;19.43;13.80;;;9.10;99.90;;;;;;4989099;28;20522;-70
2022/04/15 08:04:42;;;;;;;17.60;13.80;;;9.10;99.90;;;;;;4993377;28;20691;-70
2022/04/15 08:07:30;;;;;;;20.53;14.27;;;9.10;99.90;;;;;;4997393;28;20829;-69
2022/04/15 08:10:20;;;;;;;17.20;14.90;;;9.10;99.90;;;;;;4991191;28;20463;-69
2022/04/15 08:13:08;;;;;;;18.40;14.40;;;9.10;99.90;;;;;;4983376;28;20511;-69
2022/04/15 08:15:56;;;;;;;18.57;13.90;;;9.20;99.90;;;;;;4987556;28;20503;-70
2022/04/15 08:18:45;;;;;;;17.30;13.93;;;9.20;99.90;;;;;;4979076;28;20476;-69
2022/04/15 08:21:34;;;;;;;20.23;15.10;;;9.20;99.90;;;;;;4981802;28;20510;-70
2022/04/15 08:24:22;;;;;;;18.27;14.90;;;9.20;99.90;;;;;;4988292;28;20489;-70
2022/04/15 08:27:12;;;;;;;18.07;14.10;;;9.30;99.90;;;;;;4983364;28;20972;-69
2022/04/15 08:30:00;;;;;;;18.23;14.20;;;9.30;99.90;;;;;;4994544;28;20618;-70
2022/04/15 08:32:51;;;;;;;17.30;14.63;;;9.30;99.90;;;;;;4986463;28;20540;-69
2022/04/15 08:35:39;;;;;;;16.57;14.00;;;9.40;99.90;;;;;;4994873;28;20957;-70
2022/04/15 08:38:28;;;;;;;17.27;14.40;;;9.50;99.90;;;;;;4991006;28;20495;-69
2022/04/15 08:41:18;;;;;;;16.90;13.60;;;9.50;99.90;;;;;;4993832;28;21077;-70
2022/04/15 08:44:08;;;;;;;16.87;13.83;;;9.50;99.90;;;;;;4996087;28;20476;-69
2022/04/15 08:46:58;;;;;;;17.40;14.40;;;9.60;99.90;;;;;;4992511;28;20456;-70
2022/04/15 08:49:47;;;;;;;16.67;14.50;;;9.60;99.90;;;;;;4998516;28;20496;-70
2022/04/15 08:52:36;;;;;;;18.73;15.00;;;9.70;99.90;;;;;;4994435;28;20476;-70
2022/04/15 08:55:25;;;;;;;20.20;15.83;;;9.70;99.90;;;;;;4998580;28;20481;-69
2022/04/15 08:58:13;;;;;;;19.70;15.33;;;9.70;99.90;;;;;;4990624;28;20541;-69
2022/04/15 09:01:02;;;;;;;19.37;14.37;;;9.70;99.90;;;;;;4996878;28;20551;-69
2022/04/15 09:03:51;;;;;;;16.80;14.43;;;9.70;99.90;;;;;;4995102;28;20559;-69
2022/04/15 09:06:43;;;;;;;17.37;14.67;;;9.70;99.90;;;;;;4995961;28;20465;-69
2022/04/15 09:09:32;;;;;;;20.40;15.20;;;9.70;99.90;;;;;;4999943;28;20617;-70
2022/04/15 09:12:21;;;;;;;19.83;15.20;;;9.70;99.90;;;;;;4996570;28;20551;-70
2022/04/15 09:15:14;;;;;;;18.47;14.70;;;9.70;99.90;;;;;;4993724;28;21031;-69
2022/04/15 09:18:05;;;;;;;17.03;14.90;;;9.80;99.90;;;;;;5001457;28;20499;-69
2022/04/15 09:20:55;;;;;;;17.97;14.93;;;9.80;99.90;;;;;;4999369;28;20461;-67
2022/04/15 09:23:44;;;;;;;18.43;15.63;;;9.80;99.90;;;;;;4999648;28;20496;-68
2022/04/15 09:26:33;;;;;;;16.87;15.03;;;9.90;99.90;;;;;;4996716;28;20856;-69
2022/04/15 09:29:23;;;;;;;16.83;15.00;;;9.90;99.90;;;;;;4988197;28;21030;-69
2022/04/15 09:32:15;;;;;;;17.10;14.80;;;9.90;99.90;;;;;;4992725;28;20465;-67
2022/04/15 09:35:06;;;;;;;18.37;15.40;;;9.90;99.90;;;;;;4998868;28;20547;-74
2022/04/15 09:37:54;;;;;;;18.50;15.77;;;9.90;99.90;;;;;;5001675;28;20630;-73
2022/04/15 09:40:43;;;;;;;17.83;15.87;;;9.90;99.90;;;;;;4999499;28;20763;-74
2022/04/15 09:43:31;;;;;;;19.40;16.70;;;9.90;99.90;;;;;;5000383;28;20477;-73
2022/04/15 09:46:19;;;;;;;20.03;16.57;;;9.90;99.90;;;;;;4998550;28;20603;-73
2022/04/15 09:49:09;;;;;;;19.97;17.10;;;9.90;99.90;;;;;;4991868;28;20975;-73
2022/04/15 09:52:00;;;;;;;18.87;15.50;;;9.90;99.90;;;;;;5003171;28;20452;-74
2022/04/15 09:54:50;;;;;;;19.67;16.50;;;10.00;99.90;;;;;;4993922;28;20665;-69
2022/04/15 09:57:39;;;;;;;19.93;16.83;;;10.00;99.90;;;;;;4987061;28;20972;-70
2022/04/15 10:00:29;;;;;;;20.97;16.87;;;9.90;99.90;;;;;;4981825;28;20479;-68
2022/04/15 10:03:19;;;;;;;20.43;16.90;;;9.90;99.90;;;;;;4992970;28;20480;-70
2022/04/15 10:06:10;;;;;;;18.57;16.30;;;9.90;99.90;;;;;;4991437;28;20596;-70
2022/04/15 10:09:20;;;;;;;17.80;15.33;;;10.00;99.90;;;;;;4992454;28;20478;-69
2022/04/15 10:12:10;;;;;;;20.20;16.63;;;10.00;99.90;;;;;;4985988;28;21031;-70
2022/04/15 10:15:00;;;;;;;20.27;16.80;;;10.10;99.90;;;;;;4985270;28;20603;-70
2022/04/15 10:17:50;;;;;;;19.70;16.33;;;10.10;99.90;;;;;;4997865;28;20619;-70
2022/04/15 10:20:38;;;;;;;20.43;16.83;;;10.10;99.90;;;;;;4993325;28;20452;-70
2022/04/15 10:23:28;;;;;;;20.43;15.60;;;10.20;99.90;;;;;;4995705;28;20504;-70
2022/04/15 10:26:20;;;;;;;20.00;17.10;;;10.20;99.90;;;;;;4988331;28;20974;-70
2022/04/15 10:29:09;;;;;;;19.50;16.27;;;10.30;99.90;;;;;;4994163;28;20477;-70
2022/04/15 10:32:10;;;;;;;19.40;16.60;;;10.30;99.90;;;;;;4997284;28;20552;-70
2022/04/15 10:35:00;;;;;;;17.90;15.50;;;10.30;99.90;;;;;;4993930;28;20487;-70
2022/04/15 10:37:55;;;;;;;19.83;16.30;;;10.30;99.90;;;;;;4990375;28;20515;-71
2022/04/15 10:40:44;;;;;;;20.53;16.00;;;10.30;99.90;;;;;;4996920;28;20449;-68
2022/04/15 10:43:34;;;;;;;19.63;16.67;;;10.30;99.90;;;;;;4991811;28;20569;-75
2022/04/15 10:46:29;;;;;;;17.80;15.37;;;10.30;99.90;;;;;;4995551;28;20995;-70
2022/04/15 10:49:21;;;;;;;18.43;15.53;;;10.30;99.90;;;;;;4989227;28;20858;-69
2022/04/15 10:52:21;;;;;;;22.07;16.20;;;10.30;99.90;;;;;;4985469;28;20449;-69
2022/04/15 10:55:12;;;;;;;17.93;14.67;;;10.30;99.90;;;;;;4998268;28;20484;-70
2022/04/15 10:58:13;;;;;;;20.47;15.97;;;10.30;99.90;;;;;;5001517;28;20480;-69
2022/04/15 11:01:20;;;;;;;18.67;15.90;;;10.30;99.90;;;;;;5003245;28;20884;-69
2022/04/15 11:04:09;;;;;;;19.93;16.03;;;10.30;99.90;;;;;;4995533;28;20487;-69
2022/04/15 11:06:59;;;;;;;17.40;15.10;;;10.30;99.90;;;;;;5003846;28;20544;-70
2022/04/15 11:09:47;;;;;;;19.47;15.10;;;10.30;99.90;;;;;;5001903;28;22152;-69
2022/04/15 11:12:43;;;;;;;18.27;14.80;;;10.30;99.90;;;;;;5002884;28;20839;-70
2022/04/15 11:15:52;;;;;;;18.77;14.53;;;10.30;99.90;;;;;;5003933;28;20472;-71
2022/04/15 11:18:48;;;;;;;16.10;14.40;;;10.20;99.90;;;;;;5003316;28;20484;-70
2022/04/15 11:21:41;;;;;;;19.17;13.40;;;10.20;99.90;;;;;;5007640;28;20455;-70
2022/04/15 11:24:32;;;;;;;15.50;13.63;;;10.20;99.90;;;;;;5002219;28;20629;-68
2022/04/15 11:27:23;;;;;;;14.50;12.60;;;10.20;99.90;;;;;;5005868;28;20459;-69
2022/04/15 11:30:12;;;;;;;15.73;12.57;;;10.20;99.90;;;;;;5004224;28;20489;-70
2022/04/15 11:33:05;;;;;;;16.63;12.90;;;10.30;99.90;;;;;;4990797;28;20487;-70
2022/04/15 11:35:56;;;;;;;15.37;12.33;;;10.30;99.90;;;;;;4995649;28;20474;-70
2022/04/15 11:38:45;;;;;;;16.13;13.10;;;10.20;99.90;;;;;;4996736;28;20491;-69
2022/04/15 11:41:35;;;;;;;17.87;13.63;;;10.30;99.90;;;;;;4999231;28;21017;-69
2022/04/15 11:44:32;;;;;;;15.63;12.43;;;10.30;99.90;;;;;;4997553;28;20668;-69
2022/04/15 11:47:21;;;;;;;15.07;11.87;;;10.30;99.90;;;;;;4996626;28;20568;-69
2022/04/15 11:50:09;;;;;;;14.53;11.73;;;10.30;99.90;;;;;;5003655;28;20966;-69
2022/04/15 11:53:07;;;;;;;14.80;11.93;;;10.30;99.90;;;;;;5001974;28;20468;-69
2022/04/15 11:55:58;;;;;;;13.27;11.40;;;10.30;99.90;;;;;;5000346;28;20933;-69
2022/04/15 11:58:46;;;;;;;14.27;11.47;;;10.30;99.90;;;;;;4995901;28;20560;-69
2022/04/15 12:01:34;;;;;;;15.97;11.63;;;10.30;99.90;;;;;;4994679;28;20568;-68
2022/04/15 12:04:23;;;;;;;14.43;11.87;;;10.30;99.90;;;;;;5002074;28;20605;-69
2022/04/15 12:07:14;;;;;;;15.50;12.77;;;10.30;99.90;;;;;;4999471;28;20456;-69
2022/04/15 12:10:05;;;;;;;16.70;12.53;;;10.30;99.90;;;;;;4999784;28;20611;-69
2022/04/15 12:12:58;;;;;;;14.27;12.67;;;10.30;99.90;;;;;;5002768;28;20524;-69
2022/04/15 12:15:47;;;;;;;14.10;11.83;;;10.30;99.90;;;;;;4997595;28;20503;-69
2022/04/15 12:18:35;;;;;;;13.93;11.80;;;10.40;99.90;;;;;;4999405;28;21867;-69
2022/04/15 12:21:25;;;;;;;14.90;12.20;;;10.40;99.90;;;;;;5004353;28;20574;-69
2022/04/15 12:24:23;;;;;;;13.37;10.70;;;10.40;99.90;;;;;;4998627;28;20553;-69
2022/04/15 12:27:16;;;;;;;13.17;11.10;;;10.40;99.90;;;;;;4997577;28;20584;-69
2022/04/15 12:30:05;;;;;;;10.00;9.00;;;10.40;99.90;;;;;;4999400;28;20476;-69
2022/04/15 12:33:07;;;;;;;10.40;8.60;;;10.40;99.90;;;;;;4995119;28;20939;-69
2022/04/15 12:36:01;;;;;;;9.13;8.07;;;10.50;99.90;;;;;;5000194;28;20459;-69
2022/04/15 12:39:00;;;;;;;8.83;7.93;;;10.50;99.90;;;;;;4994207;28;20479;-69
2022/04/15 12:41:49;;;;;;;9.13;8.27;;;10.50;99.90;;;;;;4998553;28;20533;-70
2022/04/15 12:44:39;;;;;;;8.90;8.00;;;10.50;99.90;;;;;;4995599;28;20476;-69
2022/04/15 12:47:28;;;;;;;8.67;7.87;;;10.50;99.90;;;;;;4992300;28;21054;-70
2022/04/15 12:50:19;;;;;;;7.90;7.10;;;10.50;99.90;;;;;;4994037;28;20457;-70
2022/04/15 12:53:15;;;;;;;8.50;7.60;;;10.50;99.90;;;;;;5002492;28;20470;-70
2022/04/15 12:56:13;;;;;;;8.60;7.10;;;10.50;99.90;;;;;;5001253;28;20452;-69
2022/04/15 12:59:02;;;;;;;8.97;8.13;;;10.50;99.90;;;;;;4999788;28;20496;-70
2022/04/15 13:01:51;;;;;;;8.70;7.83;;;10.50;99.90;;;;;;4991438;28;20464;-70
2022/04/15 13:04:40;;;;;;;8.93;8.00;;;10.50;99.90;;;;;;4947605;28;20571;-69
2022/04/15 13:07:28;;;;;;;8.73;7.73;;;10.50;99.90;;;;;;4968136;28;20993;-69
2022/04/15 13:10:17;;;;;;;8.73;7.77;;;10.50;99.90;;;;;;4964094;28;20474;-69
2022/04/15 13:13:25;;;;;;;10.03;8.00;;;10.50;99.90;;;;;;4975595;28;21598;-69
2022/04/15 13:16:13;;;;;;;8.30;7.50;;;10.40;99.90;;;;;;4974632;28;20451;-68
2022/04/15 13:19:04;;;;;;;9.70;7.67;;;10.40;99.90;;;;;;4971475;28;20576;-69
2022/04/15 13:21:53;;;;;;;10.23;8.90;;;10.40;99.90;;;;;;4972839;28;20600;-69
2022/04/15 13:24:42;;;;;;;8.73;7.80;;;10.40;99.90;;;;;;4970053;28;20513;-72
2022/04/15 13:27:31;;;;;;;9.20;8.23;;;10.40;99.90;;;;;;4973954;28;21068;-72
2022/04/15 13:30:20;;;;;;;9.50;8.47;;;10.40;99.90;;;;;;4973388;28;20595;-70
2022/04/15 13:33:08;;;;;;;10.70;8.50;;;10.40;99.90;;;;;;4980091;28;20584;-71
2022/04/15 13:35:58;;;;;;;11.90;9.40;;;10.40;99.90;;;;;;4993023;28;20523;-71
2022/04/15 13:38:46;;;;;;;9.63;8.63;;;10.40;99.90;;;;;;4995763;28;20469;-72
2022/04/15 13:41:36;;;;;;;9.83;8.70;;;10.40;99.90;;;;;;4999766;28;20481;-71
2022/04/15 13:44:24;;;;;;;11.00;9.20;;;10.50;99.90;;;;;;4992163;28;20958;-71
2022/04/15 13:47:12;;;;;;;8.87;7.97;;;10.40;99.90;;;;;;4989409;28;20510;-72
2022/04/15 13:50:00;;;;;;;9.20;8.00;;;10.50;99.90;;;;;;4995813;28;20479;-71
2022/04/15 13:59:12;;;;;;;8.70;7.80;;;10.60;99.90;;;;;;4995712;28;21105;-69
2022/04/15 14:02:02;;;;;;;7.77;6.97;;;10.60;99.90;;;;;;4994808;28;20460;-71
2022/04/15 14:04:50;;;;;;;8.20;7.30;;;10.60;99.90;;;;;;4996978;28;20479;-72
2022/04/15 14:07:38;;;;;;;9.30;8.30;;;10.70;99.90;;;;;;4997043;28;20591;-72
2022/04/15 14:10:28;;;;;;;9.97;8.00;;;10.70;99.90;;;;;;4999759;28;20464;-72
2022/04/15 14:13:17;;;;;;;7.63;6.83;;;10.70;99.90;;;;;;4999830;28;20563;-72
2022/04/15 14:16:05;;;;;;;9.90;8.87;;;10.70;99.90;;;;;;4996691;28;20576;-73
2022/04/15 14:18:54;;;;;;;9.27;7.47;;;10.70;99.90;;;;;;5001741;28;20557;-73
2022/04/15 14:21:42;;;;;;;7.87;6.90;;;10.70;99.90;;;;;;5000295;28;20594;-72
2022/04/15 14:24:30;;;;;;;8.60;7.20;;;10.70;99.90;;;;;;4996875;28;20943;-71
2022/04/15 14:27:20;;;;;;;8.60;7.70;;;10.70;99.90;;;;;;4985975;28;20572;-69
2022/04/15 14:30:09;;;;;;;9.07;7.43;;;10.70;99.90;;;;;;4983589;28;21456;-71
2022/04/15 14:32:59;;;;;;;8.80;7.90;;;10.70;99.90;;;;;;4992188;28;20849;-69
2022/04/15 14:35:48;;;;;;;11.97;8.33;;;10.70;99.90;;;;;;4992094;28;20557;-71
2022/04/15 14:38:37;;;;;;;8.50;7.60;;;10.60;99.90;;;;;;5005054;28;20542;-71
2022/04/15 14:41:26;;;;;;;9.50;8.50;;;10.60;99.90;;;;;;5001770;28;20585;-70
2022/04/15 14:44:15;;;;;;;10.03;9.03;;;10.50;99.90;;;;;;4995414;28;20472;-71